Airfield :
LOGIN :

Register | Disclaimer

   EN    FR    IT 

 










Legend :    VFR   Marginal VFR   IFR   Intensive IFR   Very Intensive IFR
Visi :
Ceiling :
>= 8 km
>= 3000ft
5 to 8 km
1000 to 3000 ft
1500m to 5 km
500 to 1000 ft
800 to 1500m
200 to 500 ft
< 800m
< 200 ft
Symbols :   Thunderstorms  Fog  Heavy snow  Heavy precipitations  Wind > 20 kt
SIGMETs :     Misc.  Thunderstorms  Icing  Turbulence  Mountain Waves  Volcanic Ashes






- Airport Elevation : 302 ft
- IATA code : MAH


LEMH - Menorca

CURRENT METAR :
  • 152300Z AUTO 20008KT 9999 FEW012/// SCT018/// OVC020/// 14/11 Q1015

EXPIRED METARs :
  • 152230Z AUTO 20009KT 160V220 9999 FEW013/// BKN019/// 15/12 Q1015
  • 152200Z AUTO 19007KT 9999 FEW015/// SCT017/// BKN019/// 14/11 Q1015
  • 152130Z AUTO 21008KT 180V240 9999 SCT012/// BKN015/// BKN018/// 14/12 Q1015
  • 152100Z 21008KT 180V240 9999 SCT012 14/12 Q1015
  • 152030Z 21007KT 180V250 9999 SCT011 14/12 Q1015

TAF TAF LEMH
Valid from the 15 at 21:00 until the 16 at 21:00 UTC


152000Z 1521/1621 19010KT 9999 FEW020 TX19/1612Z TN12/1606Z
BECMG 1607/1609 13010KT



MET'MAP, your aeronautical weather chart ! - Copyright ORBIFLY December 2007 - Disclaimer

ORBIFLY MET'MAP TEAM :

Programming & Development : Alexandra Zaïnal
Concept & original design : Baudouin d'Aumeries
Assistance for programming : Marc-Olivier Méhu
Technical & hardware support : Manuel Goepfert

Contact : metmap@orbifly.com




SOURCES & CREDITS :

   NOAA